• Join FlightAware (Why Join?)
  • Login
  • US Flag GB Flag 
19:06 EDT


 

Airport Tracker/Info


-or-


 

Live Flight TrackerFlight Track Log ✈ UAL33 ✈ 27-Apr-2013 ✈ KLAX - KJFK

Flight Track Log - Related Links

Times and Time Zones

All times are in EDT time to prevent confusion due to time zone crossing. See the UAL33 flight status page for this flight to view local times or setup timezone preferences in your user account.

Time Position Orientation Groundspeed Altitude Reporting Facility
EDT Latitude Longitude Course Direction KTS MPH feet Rate Location/Type
15:03 33.9310 -118.4470 264° West 194 223 1,300  Level FlightAware
15:04 33.9220 -118.4690 244° Southwest 219 252 2,000 2,880 Climbing FlightAware
15:04 33.8990 -118.5040 232° Southwest 243 280 3,500 1,800 Climbing FlightAware
15:05 33.8750 -118.5370 229° Southwest 278 320 3,800 360 Climbing FlightAware
15:05 33.8590 -118.5550 223° Southwest 278 320 3,800  Level FlightAware
15:05 33.8430 -118.5620 200° South 279 321 3,800  Level FlightAware
15:05 33.8300 -118.5620 180° South 279 321 3,800 1,620 Level FlightAware
15:06 33.7920 -118.5520 168° South 282 325 4,900 2,760 Climbing FlightAware
15:06 33.7540 -118.5420 168° South 285 328 6,600 3,360 Climbing FlightAware
15:07 33.7210 -118.5330 167° South 290 334 8,000 3,300 Climbing FlightAware
15:07 33.7040 -118.5230 154° Southeast 287 330 8,800 3,780 Climbing FlightAware
15:07 33.6900 -118.5040 132° Southeast 279 321 9,900 2,820 Climbing FlightAware
15:08 33.6700 -118.4410 111° Southeast 311 358 11,400 2,460 Climbing FlightAware
15:09 33.6490 -118.3670 109° East 328 377 13,400 2,580 Climbing FlightAware
15:09 33.6420 -118.2950 97° East 337 388 15,100 1,920 Climbing FlightAware
15:10 33.6430 -118.2160 89° East 377 434 16,000 1,500 Climbing FlightAware
15:10 33.6430 -118.1420 90° East 396 456 17,000 2,100 Climbing FlightAware
15:11 33.6430 -118.0260 90° East 412 474 19,000 2,220 Climbing FlightAware
15:12 33.6430 -117.9230 90° East 423 487 20,600 2,040 Climbing FlightAware
15:13 33.6430 -117.8300 90° East 433 498 21,900 1,920 Climbing FlightAware
15:13 33.6420 -117.7310 91° East 441 507 23,200 1,860 Climbing FlightAware
15:14 33.6420 -117.6340 90° East 451 519 24,400 1,680 Climbing FlightAware
15:15 33.6420 -117.5170 90° East 461 531 25,600 1,500 Climbing FlightAware
15:15 33.6410 -117.4190 91° East 470 541 26,600 1,440 Climbing FlightAware
15:16 33.6410 -117.2980 90° East 478 550 27,700 1,800 Climbing FlightAware
15:17 33.6400 -117.1940 91° East 471 542 29,200 2,100 Climbing FlightAware
15:18 33.6390 -117.0740 91° East 467 537 30,700 1,920 Climbing FlightAware
15:18 33.6500 -116.9730 83° East 460 529 32,000 1,620 Climbing FlightAware
15:19 33.6730 -116.8640 76° East 463 533 33,000 1,380 Climbing FlightAware
15:20 33.6940 -116.7610 76° East 466 536 34,000 1,380 Climbing FlightAware
15:20 33.7140 -116.6600 77° East 466 536 34,900 1,320 Climbing FlightAware
15:21 33.7370 -116.5510 76° East 464 534 35,900 1,080 Climbing FlightAware
15:22 33.7580 -116.4480 76° East 469 540 36,500 720 Climbing FlightAware
15:23 33.7820 -116.3300 76° East 473 544 37,000 300 Climbing FlightAware
15:23 33.7990 -116.2480 76° East 470 541 37,000  Level FlightAware
15:24 33.8200 -116.1460 76° East 465 535 37,000  Level FlightAware
15:25 33.8420 -116.0370 76° East 463 533 37,000  Level FlightAware
15:25 33.8630 -115.9330 76° East 461 531 37,000  Level FlightAware
15:26 33.8900 -115.7970 77° East 458 527 37,000  Level FlightAware
15:27 33.9120 -115.6880 76° East 456 525 37,000  Level FlightAware
15:28 33.9310 -115.5940 76° East 456 525 37,000  Level FlightAware
15:28 33.9510 -115.4930 77° East 457 526 37,000  Level FlightAware
15:29 33.9690 -115.4090 75° East 457 526 37,000  Level FlightAware
15:30 33.9860 -115.3250 76° East 457 526 37,000  Level FlightAware
15:30 34.0080 -115.2200 76° East 457 526 37,000  Level FlightAware
15:31 34.0250 -115.1350 76° East 457 526 37,000  Level FlightAware
15:32 34.0430 -115.0510 75° East 457 526 37,000  Level FlightAware
15:32 34.0600 -114.9670 76° East 457 526 37,000  Level FlightAware
15:33 34.0780 -114.8830 75° East 457 526 37,000  Level FlightAware
15:34 34.0990 -114.7780 76° East 457 526 37,000  Level FlightAware
15:35 34.1170 -114.6930 76° East 457 526 37,000  Level FlightAware
15:35 34.1340 -114.6090 76° East 457 526 37,000  Level FlightAware
15:36 34.2150 -114.3040 72° East 464 534 37,000  Level FlightAware
15:37 34.2420 -114.2090 71° East 465 535 37,000  Level FlightAware
15:37 34.2750 -114.0920 71° East 465 535 37,000  Level FlightAware
15:38 34.3120 -113.9580 71° East 463 533 37,000  Level FlightAware
15:39 34.3500 -113.8210 71° East 462 532 37,000  Level FlightAware
15:40 34.3790 -113.7150 72° East 461 531 37,000  Level FlightAware
15:41 34.4040 -113.6250 71° East 459 528 37,000  Level FlightAware
15:41 34.4330 -113.5200 71° East 459 528 37,000  Level FlightAware
15:42 34.4630 -113.4090 72° East 457 526 37,000  Level FlightAware
15:43 34.4890 -113.3130 72° East 457 526 37,000  Level FlightAware
15:43 34.5160 -113.2140 72° East 456 525 37,000  Level FlightAware
15:44 34.5450 -113.1040 72° East 455 524 37,000  Level FlightAware
15:45 34.5700 -113.0110 72° East 453 521 37,000  Level FlightAware
15:46 34.5990 -112.9010 72° East 453 521 37,000  Level FlightAware
15:46 34.6240 -112.8070 72° East 454 522 37,000  Level FlightAware
15:47 34.6500 -112.7110 72° East 455 524 37,000  Level FlightAware
15:48 34.6800 -112.5950 73° East 456 525 37,000  Level FlightAware
15:48 34.7050 -112.5010 72° East 455 524 37,000  Level FlightAware
15:49 34.7310 -112.3910 74° East 455 524 37,000  Level FlightAware
15:50 34.7540 -112.2910 74° East 454 522 37,000  Level FlightAware
15:50 34.7760 -112.1910 75° East 453 521 37,000  Level FlightAware
15:51 34.8020 -112.0800 74° East 452 520 37,000  Level FlightAware
15:52 34.8240 -111.9830 75° East 453 521 37,000  Level FlightAware
15:52 34.8410 -111.9070 75° East 453 521 37,000  Level FlightAware
15:53 34.8640 -111.8010 75° East 452 520 37,000  Level FlightAware
15:54 34.8920 -111.6770 75° East 452 520 37,000  Level FlightAware
15:55 34.9110 -111.5920 75° East 452 520 37,000  Level FlightAware
15:55 34.9360 -111.4800 75° East 452 520 37,000  Level FlightAware
15:56 34.9580 -111.3780 75° East 451 519 37,000  Level FlightAware
15:57 34.9770 -111.2940 75° East 451 519 37,000  Level FlightAware
15:57 34.9950 -111.2110 75° East 451 519 37,000  Level FlightAware
15:58 35.0180 -111.1060 75° East 451 519 37,000  Level FlightAware
15:59 35.0360 -111.0220 75° East 451 519 37,000  Level FlightAware
16:00 35.0550 -110.9390 74° East 451 519 37,000  Level FlightAware
16:00 35.0730 -110.8550 75° East 451 519 37,000  Level FlightAware
16:01 35.0910 -110.7710 75° East 451 519 37,000  Level FlightAware
16:02 35.1140 -110.6670 75° East 451 519 37,000  Level FlightAware
16:02 35.1330 -110.5830 75° East 451 519 37,000  Level FlightAware
16:03 35.1510 -110.4990 75° East 451 519 37,000  Level FlightAware
16:04 35.1690 -110.4150 75° East 451 519 37,000  Level FlightAware
16:04 35.1880 -110.3310 75° East 451 519 37,000  Level FlightAware
16:05 35.2110 -110.2260 75° East 451 519 37,000  Level FlightAware
16:06 35.2747 -109.8683 75° East 447 514 37,000  Level Albuquerque Center
16:12 35.4390 -109.0640 75° East 454 522 37,000  Level FlightAware
16:13 35.4650 -108.9270 77° East 455 524 37,000  Level FlightAware
16:13 35.4920 -108.8140 74° East 455 524 37,000  Level FlightAware
16:14 35.5190 -108.7160 71° East 456 525 37,000  Level FlightAware
16:15 35.5430 -108.6290 71° East 456 525 37,000  Level FlightAware
16:15 35.5740 -108.5110 72° East 453 521 37,000  Level FlightAware
16:16 35.6010 -108.4110 72° East 453 521 37,000  Level FlightAware
16:17 35.6290 -108.3060 72° East 452 520 37,000  Level FlightAware
16:18 35.6570 -108.2020 72° East 451 519 37,000  Level FlightAware
16:18 35.6850 -108.0960 72° East 451 519 37,000  Level FlightAware
16:19 35.7110 -107.9970 72° East 451 519 37,000  Level FlightAware
16:20 35.7330 -107.9120 72° East 452 520 37,000  Level FlightAware
16:20 35.7660 -107.7880 72° East 453 521 37,000  Level FlightAware
16:21 35.7920 -107.6880 72° East 453 521 37,000  Level FlightAware
16:22 35.8190 -107.5820 73° East 455 524 37,000  Level FlightAware
16:22 35.8450 -107.4820 72° East 456 525 37,000 480 Level FlightAware
16:23 35.8710 -107.3820 72° East 454 522 37,700 1,200 Climbing FlightAware
16:24 35.9000 -107.2720 72° East 448 516 38,700 900 Climbing FlightAware
16:25 35.9250 -107.1740 72° East 452 520 39,000 180 Climbing FlightAware
16:25 35.9530 -107.0640 73° East 459 528 39,000  Level FlightAware
16:26 35.9780 -106.9660 72° East 452 520 39,000  Level FlightAware
16:27 36.0100 -106.8430 72° East 451 519 39,000  Level FlightAware
16:28 36.0400 -106.7220 73° East 450 518 39,000  Level FlightAware
16:28 36.0610 -106.6390 73° East 450 518 39,000  Level FlightAware
16:29 36.0970 -106.4960 73° East 449 517 39,000  Level FlightAware
16:30 36.1320 -106.3580 73° East 448 516 39,000  Level FlightAware
16:31 36.1640 -106.2280 73° East 449 517 39,000  Level FlightAware
16:32 36.1860 -106.1450 72° East 449 517 39,000  Level FlightAware
16:32 36.2080 -106.0610 72° East 449 517 39,000  Level FlightAware
16:33 36.2350 -105.9570 72° East 449 517 39,000  Level FlightAware
16:34 36.2570 -105.8740 72° East 449 517 39,000  Level FlightAware
16:35 36.2790 -105.7910 72° East 449 517 39,000  Level FlightAware
16:35 36.3010 -105.7070 72° East 449 517 39,000  Level FlightAware
16:36 36.3220 -105.6240 73° East 449 517 39,000  Level FlightAware
16:37 36.3500 -105.5200 71° East 449 517 39,000  Level FlightAware
16:37 36.3720 -105.4360 72° East 449 517 39,000  Level FlightAware
16:38 36.3930 -105.3530 73° East 449 517 39,000  Level FlightAware
16:39 36.4150 -105.2690 72° East 449 517 39,000  Level FlightAware
16:39 36.4370 -105.1860 72° East 449 517 39,000  Level FlightAware
16:40 36.4640 -105.0820 72° East 449 517 39,000  Level FlightAware
16:41 36.5472 -104.7139 72° East 461 531 39,000  Level Kansas City Center
16:47 36.8729 -103.8290 72° East 464 534 39,000  Level FlightAware ADS-B
16:50 37.0354 -103.3700 66° East 460 529 39,000  Level FlightAware ADS-B
16:51 37.0615 -103.2960 66° East 460 529 39,000  Level FlightAware ADS-B
16:51 37.0876 -103.2220 66° East 460 529 39,000  Level FlightAware ADS-B
16:52 37.1130 -103.1490 66° East 460 529 39,000  Level FlightAware ADS-B
16:52 37.1391 -103.0750 66° East 460 529 39,000  Level FlightAware ADS-B
16:53 37.1659 -102.9980 66° East 459 528 39,000  Level FlightAware ADS-B
16:53 37.1923 -102.9220 66° East 459 528 39,000  Level FlightAware ADS-B
16:54 37.2189 -102.8450 67° East 460 529 39,000  Level FlightAware ADS-B
16:54 37.2444 -102.7710 67° East 460 529 39,000  Level FlightAware ADS-B
16:55 37.2699 -102.6970 67° East 460 529 39,000  Level FlightAware ADS-B
16:55 37.2955 -102.6230 66° East 459 528 39,000  Level FlightAware ADS-B
16:56 37.3206 -102.5490 67° East 459 528 39,000  Level FlightAware ADS-B
16:56 37.3472 -102.4720 66° East 459 528 39,000  Level FlightAware ADS-B
16:57 37.3558 -102.4336 66° East 456 525 39,000  Level Albuquerque Center
16:58 37.4036 -102.2936 67° East 454 522 39,000  Level Albuquerque Center
16:59 37.4581 -102.1306 67° East 450 518 39,000  Level Albuquerque Center
17:00 37.5042 -101.9928 67° East 446 513 39,000  Level Albuquerque Center
17:01 37.5486 -101.8536 68° East 447 514 39,000  Level Kansas City Center
17:02 37.6019 -101.6944 67° East 443 510 39,000  Level Kansas City Center
17:03 37.6475 -101.5556 67° East 445 512 39,000  Level Kansas City Center
17:04 37.7008 -101.3947 67° East 446 513 39,000  Level Kansas City Center
17:05 37.7469 -101.2536 68° East 449 517 39,000  Level Kansas City Center
17:06 37.7933 -101.1133 67° East 449 517 39,000  Level Kansas City Center
17:07 37.8475 -100.9461 68° East 453 521 39,000  Level Kansas City Center
17:08 37.8944 -100.8031 67° East 454 522 39,000  Level Kansas City Center
17:09 37.9403 -100.6622 68° East 451 519 39,000  Level Kansas City Center
17:10 37.9956 -100.4989 67° East 450 518 39,000  Level Kansas City Center
17:11 38.0431 -100.3600 66° East 449 517 39,000  Level Kansas City Center
17:12 38.0972 -100.1983 67° East 447 514 39,000  Level Kansas City Center
17:13 38.1436 -100.0583 67° East 447 514 39,000  Level Kansas City Center
17:14 38.1969 -99.8947 67° East 448 516 39,000  Level Kansas City Center
17:15 38.2444 -99.7572 66° East 445 512 39,000  Level Kansas City Center
17:16 38.2892 -99.6164 68° East 447 514 39,000  Level Kansas City Center
17:17 38.3403 -99.4606 67° East 449 517 39,000  Level Kansas City Center
17:18 38.3886 -99.3139 67° East 449 517 39,000  Level Kansas City Center
17:19 38.4381 -99.1656 67° East 453 521 39,000  Level Kansas City Center
17:20 38.4842 -99.0167 68° East 451 519 39,000  Level Kansas City Center
17:21 38.5331 -98.8692 67° East 451 519 39,000  Level Kansas City Center
17:22 38.5914 -98.6883 68° East 453 521 39,000  Level Kansas City Center
17:23 38.6389 -98.5397 68° East 451 519 39,000  Level Kansas City Center
17:24 38.6858 -98.3908 68° East 449 517 39,000  Level Kansas City Center
17:30 38.9460 -97.4840 68° East 453 521 39,000  Level FlightAware
17:31 38.9580 -97.3960 80° East 453 521 39,000  Level FlightAware
17:32 38.9550 -97.4190 260° West 453 521 39,000  Level FlightAware
17:33 38.9680 -97.3290 79° East 453 521 39,000  Level FlightAware
17:33 38.9800 -97.2380 80° East 453 521 39,000  Level FlightAware
17:34 38.9950 -97.1260 80° East 453 521 39,000  Level FlightAware
17:35 39.0080 -97.0350 80° East 453 521 39,000  Level FlightAware
17:35 39.0200 -96.9450 80° East 453 521 39,000  Level FlightAware
17:36 39.0320 -96.8550 80° East 453 521 39,000  Level FlightAware
17:37 39.0450 -96.7640 80° East 453 521 39,000  Level FlightAware
17:38 39.0600 -96.6510 80° East 453 521 39,000  Level FlightAware
17:38 39.1100 -96.2190 81° East 454 522 39,000  Level FlightAware
17:39 39.1280 -96.0740 81° East 455 524 39,000  Level FlightAware
17:40 39.1420 -95.9530 81° East 455 524 39,000  Level FlightAware
17:42 39.1620 -95.7940 81° East 456 525 39,000  Level FlightAware
17:42 39.1740 -95.6900 82° East 456 525 39,000  Level FlightAware
17:45 39.2170 -95.3260 81° East 458 527 39,000  Level FlightAware
17:46 39.2510 -95.0310 81° East 461 531 39,000  Level FlightAware
17:47 39.2660 -94.9030 81° East 463 533 39,000  Level FlightAware
17:49 39.2940 -94.6670 81° East 466 536 39,000  Level FlightAware
17:50 39.3300 -94.3920 80° East 470 541 39,000  Level FlightAware
17:50 39.3450 -94.2800 80° East 472 543 39,000  Level FlightAware
17:51 39.3590 -94.1710 81° East 474 545 39,000  Level FlightAware
17:52 39.3740 -94.0460 81° East 474 545 39,000  Level FlightAware
17:52 39.3890 -93.9330 80° East 474 545 39,000  Level FlightAware
17:53 39.4020 -93.8230 81° East 474 545 39,000  Level FlightAware
17:54 39.4180 -93.6940 81° East 475 547 39,000  Level FlightAware
17:54 39.4320 -93.5820 81° East 474 545 39,000  Level FlightAware
17:55 39.4470 -93.4590 81° East 474 545 39,000  Level FlightAware
17:56 39.4610 -93.3460 81° East 473 544 39,000  Level FlightAware
17:57 39.4760 -93.2190 81° East 472 543 39,000  Level FlightAware
17:57 39.4890 -93.1070 81° East 472 543 39,000  Level FlightAware
17:58 39.5020 -92.9970 81° East 471 542 39,000  Level FlightAware
17:59 39.5140 -92.8930 81° East 471 542 39,000  Level FlightAware
17:59 39.5290 -92.7650 81° East 471 542 39,000  Level FlightAware
18:00 39.5410 -92.6610 81° East 471 542 39,000  Level FlightAware
18:01 39.5540 -92.5520 81° East 472 543 39,000  Level FlightAware
18:01 39.5660 -92.4420 82° East 472 543 39,000  Level FlightAware
18:02 39.5850 -92.2810 81° East 472 543 39,000  Level FlightAware
18:03 39.5990 -92.1480 82° East 474 545 39,000  Level FlightAware
18:04 39.6110 -92.0380 82° East 474 545 39,000  Level FlightAware
18:04 39.6230 -91.9300 82° East 474 545 39,000  Level FlightAware
18:05 39.6370 -91.7990 82° East 474 545 39,000  Level FlightAware
18:06 39.6470 -91.7000 82° East 473 544 39,000  Level FlightAware
18:06 39.6610 -91.5670 82° East 473 544 39,000  Level FlightAware
18:07 39.6750 -91.4410 82° East 473 544 39,000  Level FlightAware
18:08 39.6840 -91.3510 83° East 473 544 39,000  Level FlightAware
18:09 39.6990 -91.2060 82° East 471 542 39,000  Level FlightAware
18:09 39.7100 -91.0930 83° East 471 542 39,000  Level FlightAware
18:10 39.7220 -90.9700 83° East 471 542 39,000  Level FlightAware
18:11 39.7340 -90.8550 82° East 472 543 39,000  Level FlightAware
18:11 39.7450 -90.7400 83° East 472 543 39,000  Level FlightAware
18:12 39.7540 -90.6500 83° East 471 542 39,000  Level FlightAware
18:13 39.7680 -90.5030 83° East 472 543 39,000  Level FlightAware
18:13 39.7800 -90.3760 83° East 473 544 39,000  Level FlightAware
18:14 39.7900 -90.2730 83° East 474 545 39,000  Level FlightAware
18:15 39.8010 -90.1520 83° East 475 547 39,000  Level FlightAware
18:16 39.8130 -90.0270 83° East 476 548 39,000  Level FlightAware
18:16 39.8230 -89.9170 83° East 477 549 39,000  Level FlightAware
18:17 39.8340 -89.7930 83° East 478 550 39,000  Level FlightAware
18:18 39.8430 -89.6680 85° East 476 548 39,000  Level FlightAware
18:18 39.8450 -89.5450 89° East 477 549 39,000  Level FlightAware
18:19 39.8450 -89.4280 90° East 477 549 39,000  Level FlightAware
18:20 39.8460 -89.2970 89° East 479 551 39,000  Level FlightAware
18:20 39.8460 -89.1940 90° East 479 551 39,000  Level FlightAware
18:21 39.8470 -89.0670 89° East 480 552 39,000  Level FlightAware
18:22 39.8470 -88.9330 90° East 480 552 39,000  Level FlightAware
18:22 39.8470 -88.8580 90° East 480 552 39,000  Level FlightAware
18:23 39.8470 -88.7000 90° East 481 554 39,000  Level FlightAware
18:24 39.8470 -88.5770 90° East 482 555 39,000  Level FlightAware
18:25 39.8470 -88.4580 90° East 483 556 39,000  Level FlightAware
18:25 39.8460 -88.3450 91° East 484 557 39,000  Level FlightAware
18:26 39.8460 -88.2270 90° East 485 558 39,000  Level FlightAware
18:27 39.8450 -88.0990 91° East 485 558 39,000  Level FlightAware
18:27 39.8440 -87.9680 91° East 486 559 39,000  Level FlightAware
18:28 39.8430 -87.8490 91° East 487 560 39,000  Level FlightAware
18:29 39.8420 -87.7160 91° East 487 560 39,000  Level FlightAware
18:30 39.8400 -87.5610 91° East 488 562 39,000  Level FlightAware
18:30 39.8390 -87.4630 91° East 489 563 39,000  Level FlightAware
18:31 39.8370 -87.3230 91° East 489 563 39,000  Level FlightAware
18:32 39.8350 -87.2000 91° East 489 563 39,000  Level FlightAware
18:33 39.8330 -87.0720 91° East 490 564 39,000  Level FlightAware
18:33 39.8310 -86.9560 91° East 490 564 39,000  Level FlightAware
18:34 39.8290 -86.8270 91° East 490 564 39,000  Level FlightAware
18:35 39.8270 -86.7060 91° East 490 564 39,000  Level FlightAware
18:35 39.8240 -86.5710 92° East 489 563 39,000  Level FlightAware
18:36 39.8220 -86.4540 91° East 489 563 39,000  Level FlightAware
18:37 39.8300 -86.3250 85° East 493 567 39,000  Level FlightAware
18:37 39.8480 -86.2310 76° East 494 568 39,000  Level FlightAware
18:38 39.8820 -86.0730 74° East 495 570 39,000  Level FlightAware
18:39 39.9150 -85.9210 74° East 497 572 39,000  Level FlightAware
18:40 39.9390 -85.8030 75° East 498 573 39,000  Level FlightAware
18:40 39.9710 -85.6960 69° East 500 575 39,000  Level FlightAware
18:41 40.0210 -85.5720 62° Northeast 499 574 39,000  Level FlightAware
18:42 40.0580 -85.4800 62° Northeast 500 575 39,000  Level FlightAware
18:43 40.1070 -85.3630 61° Northeast 501 577 39,000  Level FlightAware
18:43 40.1550 -85.2470 62° Northeast 502 578 39,000  Level FlightAware
18:44 40.2000 -85.1370 62° Northeast 500 575 39,000  Level FlightAware
18:45 40.2510 -85.0140 61° Northeast 500 575 39,000  Level FlightAware
18:45 40.2920 -84.9130 62° Northeast 499 574 39,000  Level FlightAware
18:46 40.3290 -84.8230 62° Northeast 499 574 39,000  Level FlightAware
18:47 40.3860 -84.6820 62° Northeast 498 573 39,000  Level FlightAware
18:47 40.4290 -84.5760 62° Northeast 497 572 39,000  Level FlightAware
18:48 40.4770 -84.4570 62° Northeast 496 571 39,000  Level FlightAware
18:49 40.5200 -84.3500 62° Northeast 496 571 39,000  Level FlightAware
18:50 40.5610 -84.2460 63° Northeast 494 568 39,000  Level FlightAware
18:50 40.6110 -84.1210 62° Northeast 493 567 39,000  Level FlightAware
18:51 40.6540 -84.0150 62° Northeast 492 566 39,000  Level FlightAware
18:52 40.7000 -83.8980 63° Northeast 492 566 39,000  Level FlightAware
18:52 40.7400 -83.7950 63° Northeast 491 565 39,000  Level FlightAware
18:53 40.7830 -83.6880 62° Northeast 490 564 39,000  Level FlightAware
18:54 40.8310 -83.5640 63° Northeast 489 563 39,000  Level FlightAware
18:54 40.8720 -83.4600 62° Northeast 488 562 39,000  Level FlightAware
18:55 40.9120 -83.3580 63° Northeast 487 560 39,000  Level FlightAware
18:56 40.9590 -83.2370 63° Northeast 486 559 39,000  Level FlightAware
18:57 41.0000 -83.1300 63° Northeast 486 559 39,000  Level FlightAware
18:57 41.0420 -83.0190 63° Northeast 486 559 39,000  Level FlightAware
18:58 41.0740 -82.9000 70° East 489 563 39,000  Level FlightAware
18:59 41.0970 -82.7660 77° East 491 565 39,000  Level FlightAware
18:59 41.1130 -82.6620 78° East 490 564 39,000  Level FlightAware
19:00 41.1340 -82.5290 78° East 491 565 39,000  Level FlightAware
19:01 41.1540 -82.4010 78° East 490 564 39,000  Level FlightAware
19:01 41.1720 -82.2830 79° East 491 565 39,000  Level FlightAware
19:02 41.1900 -82.1650 79° East 491 565 39,000  Level FlightAware
19:03 41.2110 -82.0300 78° East 492 566 39,000  Level FlightAware
19:04 41.2280 -81.9130 79° East 492 566 39,000  Level FlightAware
19:04 41.2490 -81.7770 78° East 492 566 39,000  Level FlightAware
19:05 41.2670 -81.6580 79° East 492 566 39,000  Level FlightAware
19:06 41.2840 -81.5410 79° East 493 567 39,000  Level FlightAware
19:06 41.3030 -81.4090 79° East 492 566 39,000  Level FlightAware
19:07 41.3200 -81.2900 79° East 492 566 39,000  Level FlightAware
19:08 41.3400 -81.1550 79° East 493 567 39,000  Level FlightAware
19:08 41.3570 -81.0360 79° East 493 567 39,000  Level FlightAware
19:09 41.3760 -80.9030 79° East 494 568 39,000  Level FlightAware
19:10 41.3930 -80.7790 80° East 495 570 39,000  Level FlightAware
19:11 41.4090 -80.6660 79° East 495 570 39,000  Level FlightAware
19:11 41.4280 -80.5250 80° East 496 571 39,000  Level FlightAware
19:12 41.4440 -80.4090 80° East 495 570 39,000  Level FlightAware
19:13 41.4620 -80.2750 80° East 496 571 39,000  Level FlightAware
19:13 41.4790 -80.1530 79° East 497 572 39,000  Level FlightAware
19:14 41.4950 -80.0330 80° East 498 573 39,000  Level FlightAware
19:15 41.5130 -79.8960 80° East 499 574 39,000  Level FlightAware
19:15 41.5290 -79.7730 80° East 499 574 39,000  Level FlightAware
19:16 41.5460 -79.6390 80° East 500 575 39,000  Level FlightAware
19:17 41.5660 -79.4880 80° East 501 577 39,000  Level FlightAware
19:18 41.5800 -79.3760 80° East 500 575 39,000  Level FlightAware
19:19 41.5920 -79.2290 84° East 506 582 39,000  Level FlightAware
19:19 41.5970 -79.1030 87° East 506 582 39,000  Level FlightAware
19:20 41.6030 -78.9760 86° East 507 583 39,000  Level FlightAware
19:21 41.6100 -78.8440 86° East 508 585 39,000  Level FlightAware
19:21 41.6170 -78.7140 86° East 509 586 39,000  Level FlightAware
19:22 41.6240 -78.5750 86° East 509 586 39,000  Level FlightAware
19:23 41.6310 -78.4450 86° East 509 586 39,000  Level FlightAware
19:23 41.6380 -78.3060 86° East 508 585 39,000  Level FlightAware
19:24 41.6430 -78.1860 87° East 507 583 39,000  Level FlightAware
19:25 41.6490 -78.0630 86° East 505 581 39,000  Level FlightAware
19:26 41.6550 -77.9270 87° East 504 580 39,000  Level FlightAware
19:26 41.6610 -77.7920 87° East 502 578 39,000  Level FlightAware
19:27 41.6660 -77.6600 87° East 501 577 39,000  Level FlightAware
19:28 41.6720 -77.5280 86° East 500 575 39,000  Level FlightAware
19:28 41.6770 -77.4050 87° East 499 574 39,000  Level FlightAware
19:29 41.6820 -77.2680 87° East 498 573 39,000  Level FlightAware
19:30 41.6750 -77.1450 94° East 508 585 39,000  Level FlightAware
19:30 41.6368 -76.9921 108° East 512 589 39,000  Level FlightAware ADS-B
19:31 41.6114 -76.8980 110° East 510 587 39,000  Level FlightAware ADS-B
19:31 41.5870 -76.8089 110° East 509 586 39,000  Level FlightAware ADS-B
19:32 41.5615 -76.7153 110° East 509 586 39,000 -660 Level FlightAware ADS-B
19:33 41.5345 -76.6171 110° East 511 588 38,300 -1,440 Descending FlightAware ADS-B
19:33 41.5100 -76.5275 110° East 514 592 37,500 -1,500 Descending FlightAware ADS-B
19:34 41.4835 -76.4321 110° East 519 597 36,800 -1,440 Descending FlightAware ADS-B
19:34 41.4566 -76.3351 110° East 525 604 36,000 -1,320 Descending FlightAware ADS-B
19:35 41.4298 -76.2389 110° East 525 604 35,400 -1,200 Descending FlightAware ADS-B
19:35 41.4044 -76.1476 110° East 526 605 34,800 -1,200 Descending FlightAware ADS-B
19:36 41.3776 -76.0526 111° Southeast 525 604 34,200 -960 Descending FlightAware ADS-B
19:36 41.3505 -75.9559 110° East 519 597 33,800 -1,260 Descending FlightAware ADS-B
19:37 41.3239 -75.8616 111° Southeast 513 590 32,900 -2,400 Descending FlightAware ADS-B
19:37 41.2978 -75.7698 111° Southeast 514 592 31,300 -3,000 Descending FlightAware ADS-B
19:38 41.2737 -75.6895 112° Southeast 514 592 30,000 -3,240 Descending FlightAware ADS-B
19:38 41.2452 -75.6014 113° Southeast 513 590 28,200 -3,660 Descending FlightAware ADS-B
19:39 41.2160 -75.5138 114° Southeast 514 592 26,300 -3,600 Descending FlightAware ADS-B
19:39 41.1852 -75.4217 114° Southeast 508 585 24,500 -2,880 Descending FlightAware ADS-B
19:40 41.1561 -75.3357 114° Southeast 492 566 23,300 -1,500 Descending FlightAware ADS-B
19:40 41.1276 -75.2514 114° Southeast 478 550 23,000 -300 Descending FlightAware ADS-B
19:41 41.0999 -75.1695 114° Southeast 470 541 23,000  Level FlightAware ADS-B
19:41 41.0731 -75.0904 114° Southeast 468 539 23,000  Level FlightAware ADS-B
19:42 41.0463 -75.0114 114° Southeast 470 541 23,000  Level FlightAware ADS-B
19:42 41.0191 -74.9318 114° Southeast 469 540 23,000  Level FlightAware ADS-B
19:42 41.0147 -74.9170 112° Southeast 467 537 23,000  Level FlightAware ADS-B
19:43 41.0044 -74.8777 109° East 466 536 23,000 -240 Level FlightAware ADS-B
19:43 40.9957 -74.8298 104° East 462 532 22,900 -840 Descending FlightAware ADS-B
19:43 40.9934 -74.8148 101° East 461 531 22,700 -2,640 Descending FlightAware ADS-B
19:44 40.9833 -74.7294 99° East 453 521 21,300 -2,400 Descending FlightAware ADS-B
19:44 40.9807 -74.7050 98° East 444 511 21,100 -840 Descending FlightAware ADS-B
19:44 40.9747 -74.6494 98° East 424 488 20,900 -1,020 Descending FlightAware ADS-B
19:44 40.9723 -74.6266 98° East 419 482 20,600 -1,380 Descending FlightAware ADS-B
19:45 40.9665 -74.5707 98° East 412 474 20,200 -840 Descending FlightAware ADS-B
19:45 40.9582 -74.4959 98° East 401 461 19,900 -780 Descending FlightAware ADS-B
19:46 40.9491 -74.4152 98° East 390 449 19,400 -840 Descending FlightAware ADS-B
19:46 40.9426 -74.3579 99° East 382 440 19,100 -780 Descending FlightAware ADS-B
19:46 40.9409 -74.3423 98° East 380 437 19,000 -180 Descending FlightAware ADS-B
19:47 40.9337 -74.2798 99° East 376 433 19,000  Level FlightAware ADS-B
19:47 40.9325 -74.2702 99° East 378 435 19,000  Level FlightAware ADS-B
19:47 40.9248 -74.2017 98° East 383 441 19,000  Level FlightAware ADS-B
19:47 40.9244 -74.1993 102° East 381 438 19,000 -480 Level FlightAware ADS-B
19:47 40.9211 -74.1735 100° East 375 432 18,900 -720 Descending FlightAware ADS-B
19:48 40.9186 -74.1606 104° East 374 430 18,800 -780 Descending FlightAware ADS-B
19:48 40.9174 -74.1555 107° East 374 430 18,800  Level FlightAware ADS-B
19:48 40.9156 -74.1498 113° Southeast 373 429 18,800  Level FlightAware ADS-B
19:48 40.9155 -74.1490 99° East 373 429 18,800 -780 Level FlightAware ADS-B
19:48 40.9098 -74.1335 116° Southeast 371 427 18,700 -1,380 Descending FlightAware ADS-B
19:48 40.9083 -74.1299 119° Southeast 371 427 18,600 -780 Descending FlightAware ADS-B
19:48 40.9026 -74.1188 124° Southeast 369 425 18,600  Level FlightAware ADS-B
19:48 40.9019 -74.1176 128° Southeast 369 425 18,600 -1,020 Level FlightAware ADS-B
19:48 40.8969 -74.1096 130° Southeast 368 423 18,500 -600 Descending FlightAware ADS-B
19:48 40.8909 -74.1013 134° Southeast 366 421 18,500 -960 Level FlightAware ADS-B
19:48 40.8792 -74.0891 142° Southeast 362 417 18,300 -1,140 Descending FlightAware ADS-B
19:48 40.8760 -74.0862 146° Southeast 362 417 18,300 -1,200 Level FlightAware ADS-B
19:48 40.8655 -74.0784 151° Southeast 359 413 18,100 -1,860 Descending FlightAware ADS-B
19:48 40.8559 -74.0726 155° Southeast 357 411 17,900 -1,860 Descending FlightAware ADS-B
19:49 40.8461 -74.0673 158° South 356 410 17,700 -1,800 Descending FlightAware ADS-B
19:49 40.8295 -74.0611 164° South 353 406 17,400 -2,040 Descending FlightAware ADS-B
19:49 40.8271 -74.0606 171° South 352 405 17,300 -3,000 Descending FlightAware ADS-B
19:49 40.8240 -74.0599 170° South 353 406 17,200 -2,460 Descending FlightAware ADS-B
19:49 40.7756 -74.0544 175° South 344 396 16,000 -2,340 Descending FlightAware ADS-B
19:49 40.7696 -74.0537 175° South 343 395 15,900 -1,980 Descending FlightAware ADS-B
19:50 40.7275 -74.0477 174° South 332 382 15,000 -1,920 Descending FlightAware ADS-B
19:50 40.7153 -74.0458 173° South 334 384 14,800 -1,200 Descending FlightAware ADS-B
19:50 40.6813 -74.0413 174° South 324 373 14,400 -1,200 Descending FlightAware ADS-B
19:51 40.6619 -74.0386 174° South 322 371 14,100 -1,440 Descending FlightAware ADS-B
19:51 40.6494 -74.0349 167° South 323 372 13,900 -1,500 Descending FlightAware ADS-B
19:51 40.6057 -74.0110 157° South 321 369 13,100 -1,380 Descending FlightAware ADS-B
19:52 40.5638 -73.9880 157° South 312 359 12,500 -1,380 Descending FlightAware ADS-B
19:52 40.5229 -73.9658 158° South 313 360 11,700 -1,620 Descending FlightAware ADS-B
19:53 40.4829 -73.9440 157° South 312 359 10,900 -1,740 Descending FlightAware ADS-B
19:53 40.4425 -73.9229 158° South 313 360 10,000 -1,740 Descending FlightAware ADS-B
19:53 40.4218 -73.9124 159° South 314 361 9,600 -1,560 Descending FlightAware ADS-B
19:54 40.4000 -73.9020 160° South 312 359 9,200 -1,380 Descending FlightAware ADS-B
19:54 40.3792 -73.8919 160° South 309 356 8,900 -1,380 Descending FlightAware ADS-B
19:54 40.3590 -73.8819 159° South 308 354 8,500 -1,560 Descending FlightAware ADS-B
19:55 40.3382 -73.8716 159° South 308 354 8,100 -1,440 Descending FlightAware ADS-B
19:55 40.3183 -73.8613 158° South 307 353 7,800 -960 Descending FlightAware ADS-B
19:55 40.2968 -73.8500 158° South 302 348 7,600 -420 Descending FlightAware ADS-B
19:55 40.2750 -73.8383 158° South 304 350 7,600  Level FlightAware ADS-B
19:56 40.2527 -73.8256 157° South 302 348 7,600  Level FlightAware ADS-B
19:56 40.2459 -73.8194 145° Southeast 300 345 7,600  Level FlightAware ADS-B
19:56 40.2410 -73.8134 137° Southeast 297 342 7,600  Level FlightAware ADS-B
19:56 40.2316 -73.7923 120° Southeast 287 330 7,600 -540 Level FlightAware ADS-B
19:56 40.2323 -73.7554 89° East 267 307 7,300 -960 Descending FlightAware ADS-B
19:56 40.2345 -73.7493 65° Northeast 263 303 7,200 -840 Descending FlightAware ADS-B
19:57 40.2419 -73.7356 55° Northeast 259 298 7,100 -900 Descending FlightAware ADS-B
19:57 40.2498 -73.7250 46° Northeast 256 295 6,900 -1,080 Descending FlightAware ADS-B
19:57 40.2673 -73.7047 42° Northeast 255 293 6,600 -480 Descending FlightAware ADS-B
19:57 40.2844 -73.6857 40° Northeast 257 296 6,600  Level FlightAware ADS-B
19:58 40.2995 -73.6687 41° Northeast 260 299 6,600  Level FlightAware ADS-B
19:58 40.3179 -73.6482 40° Northeast 262 302 6,600  Level FlightAware ADS-B
19:58 40.3330 -73.6314 40° Northeast 263 303 6,600  Level FlightAware ADS-B
19:59 40.3495 -73.6129 41° Northeast 262 302 6,600  Level FlightAware ADS-B
19:59 40.3655 -73.5952 40° Northeast 262 302 6,600  Level FlightAware ADS-B
19:59 40.3885 -73.5691 41° Northeast 262 302 6,600  Level FlightAware ADS-B
20:00 40.4052 -73.5511 39° Northeast 261 300 6,600  Level FlightAware ADS-B
20:00 40.4094 -73.5475 33° Northeast 259 298 6,600  Level FlightAware ADS-B
20:00 40.4153 -73.5439 25° Northeast 256 295 6,600 360 Level FlightAware ADS-B
20:00 40.4261 -73.5400 15° North 254 292 6,700  Climbing FlightAware ADS-B
20:00 40.4417 -73.5367 North 254 292 6,600 -300 Descending FlightAware ADS-B
20:00 40.4529 -73.5344 North 255 293 6,600  Level FlightAware ADS-B
20:00 40.4620 -73.5312 15° North 256 295 6,600  Level FlightAware ADS-B
20:01 40.4721 -73.5253 24° Northeast 258 297 6,600  Level FlightAware ADS-B
20:01 40.4879 -73.5136 29° Northeast 259 298 6,600 -240 Level FlightAware ADS-B
20:01 40.5033 -73.5016 31° Northeast 258 297 6,500 -600 Descending FlightAware ADS-B
20:01 40.5214 -73.4874 31° Northeast 258 297 6,300 -900 Descending FlightAware ADS-B
20:02 40.5315 -73.4799 29° Northeast 256 295 6,100 -1,020 Descending FlightAware ADS-B
20:02 40.5399 -73.4756 21° North 253 291 6,000 -1,200 Descending FlightAware ADS-B
20:02 40.5598 -73.4737 North 249 287 5,600 -1,500 Descending FlightAware ADS-B
20:03 40.5990 -73.4770 356° North 249 287 4,700 -1,440 Descending FlightAware
20:03 40.6290 -73.4790 357° North 251 289 4,000 -1,380 Descending FlightAware
20:03 40.6410 -73.4820 349° North 250 288 3,800 -1,200 Descending FlightAware
20:04 40.6630 -73.5020 325° Northwest 237 273 3,400 -1,200 Descending FlightAware
20:04 40.6830 -73.5270 317° Northwest 221 254 2,900 -1,320 Descending FlightAware
20:05 40.7040 -73.5540 316° Northwest 213 245 2,200 -1,200 Descending FlightAware
20:05 40.7250 -73.5790 318° Northwest 223 257 1,700 -660 Descending FlightAware
20:05 40.7420 -73.6030 313° West 218 251 1,600  Descending FlightAware
20:06 40.7410 -73.6250 267° West 211 243 1,700  Climbing FlightAware
20:06 40.7360 -73.6420 249° West 211 243 1,600 -180 Descending FlightAware
20:06 40.7210 -73.6680 233° Southwest 196 226 1,600 -360 Level FlightAware
20:07 40.7030 -73.6900 223° Southwest 167 192 1,300 -600 Descending FlightAware
20:07 40.6880 -73.7090 224° Southwest 140 161 1,000 -660 Descending FlightAware
20:08 40.6770 -73.7220 222° Southwest 123 142 700 -660 Descending FlightAware
20:08 40.6640 -73.7360 219° Southwest 117 135 400 -720 Descending FlightAware
20:09 40.6580 -73.7450 229° Southwest 118 136 200 -840 Descending FlightAware
20:09 40.6460 -73.7560 215° Southwest 124 143 -480 Descending FlightAware